createdAt,value
2019-03-12T00:01:03.160Z,2.65
2019-03-12T00:16:05.711Z,2.54
2019-03-12T00:31:08.355Z,1.71
2019-03-12T00:46:11.072Z,1.52
2019-03-12T01:01:13.625Z,1.63
2019-03-12T01:16:17.140Z,1.40
2019-03-12T01:31:20.969Z,1.56
2019-03-12T01:46:23.801Z,1.75
2019-03-12T02:01:26.614Z,1.48
2019-03-12T02:16:30.453Z,1.47
2019-03-12T02:31:33.055Z,1.80
2019-03-12T02:46:35.646Z,1.63
2019-03-12T03:01:39.948Z,1.32
2019-03-12T03:16:42.560Z,1.35
2019-03-12T03:31:45.167Z,1.26
2019-03-12T03:46:47.733Z,1.10
2019-03-12T04:01:52.353Z,1.09
2019-03-12T04:16:54.984Z,0.78
2019-03-12T04:31:57.540Z,0.80
2019-03-12T04:47:03.398Z,0.85
2019-03-12T05:02:06.221Z,0.95
2019-03-12T05:17:09.775Z,1.05
2019-03-12T05:32:12.710Z,1.30
2019-03-12T05:47:15.289Z,1.16
2019-03-12T06:02:17.843Z,1.39
2019-03-12T06:17:20.807Z,1.32
2019-03-12T06:32:35.286Z,1.16
2019-03-12T06:47:48.553Z,1.36
2019-03-12T07:03:01.825Z,1.29
2019-03-12T07:18:07.992Z,1.69
2019-03-12T07:33:16.553Z,1.88
2019-03-12T07:48:26.662Z,2.32
2019-03-12T08:03:36.885Z,3.36
2019-03-12T08:18:42.334Z,3.17
2019-03-12T08:33:55.571Z,2.48
2019-03-12T08:49:14.806Z,2.10
2019-03-12T09:04:23.984Z,2.05
2019-03-12T09:19:30.745Z,2.30
2019-03-12T09:34:40.999Z,1.90
2019-03-12T09:49:47.032Z,2.78
2019-03-12T10:04:57.208Z,2.74
2019-03-12T10:20:01.777Z,3.23
2019-03-12T10:35:08.466Z,2.91
2019-03-12T10:50:11.258Z,3.51
2019-03-12T11:05:17.609Z,2.53
2019-03-12T11:20:24.092Z,2.57
2019-03-12T11:35:26.666Z,3.12
2019-03-12T11:50:29.221Z,3.53
2019-03-12T12:05:32.606Z,3.56
2019-03-12T12:20:35.292Z,3.47
2019-03-12T12:35:37.831Z,2.52
2019-03-12T12:50:40.374Z,2.35
2019-03-12T13:05:42.924Z,2.28
2019-03-12T13:20:45.622Z,1.95
2019-03-12T13:35:49.714Z,2.24
2019-03-12T13:50:52.439Z,1.79
2019-03-12T14:05:54.997Z,1.41
2019-03-12T14:21:02.875Z,1.21
2019-03-12T14:36:06.714Z,1.25
2019-03-12T15:06:46.782Z,1.39
2019-03-12T15:21:50.553Z,1.55
2019-03-12T15:36:53.167Z,1.73
2019-03-12T15:51:56.291Z,1.60
2019-03-12T16:07:01.625Z,1.41
2019-03-12T16:22:06.234Z,1.40
2019-03-12T16:37:08.828Z,1.22
2019-03-12T16:52:17.341Z,1.33
2019-03-12T17:07:19.918Z,1.18
2019-03-12T17:22:22.498Z,1.15
2019-03-12T17:37:26.336Z,1.27
2019-03-12T17:52:28.959Z,1.23
2019-03-12T18:07:32.386Z,1.14
2019-03-12T18:22:38.853Z,0.87
2019-03-12T18:37:40.689Z,0.76
2019-03-12T18:52:45.336Z,0.66
2019-03-12T19:07:47.980Z,0.62
2019-03-12T19:22:50.580Z,0.51
2019-03-12T19:37:53.362Z,0.46
2019-03-12T19:52:55.968Z,0.56
2019-03-12T20:07:59.898Z,0.71
2019-03-12T20:23:09.848Z,0.43
2019-03-12T20:38:31.856Z,0.34
2019-03-12T20:53:42.503Z,0.29
2019-03-12T21:40:18.986Z,0.22
2019-03-12T21:55:22.802Z,0.02
2019-03-12T22:10:25.373Z,-0.29
2019-03-12T22:25:29.465Z,-0.32
2019-03-12T22:40:32.837Z,-0.18
2019-03-12T22:55:36.638Z,-0.34
2019-03-12T23:10:40.778Z,-0.38
2019-03-12T23:25:44.438Z,-0.15
2019-03-12T23:40:47.154Z,-0.02
2019-03-12T23:55:51.365Z,-0.40
